sensor_id;sensor_type;location;lat;lon;timestamp;P1;durP1;ratioP1;P2;durP2;ratioP2
48743;SDS011;34538;48.836;9.174;2023-04-21T00:00:11;29.13;;;16.50;;
48743;SDS011;34538;48.836;9.174;2023-04-21T00:02:39;28.30;;;17.15;;
48743;SDS011;34538;48.836;9.174;2023-04-21T00:05:07;27.85;;;17.38;;
48743;SDS011;34538;48.836;9.174;2023-04-21T00:07:36;27.45;;;15.77;;
48743;SDS011;34538;48.836;9.174;2023-04-21T00:10:04;30.40;;;17.08;;
48743;SDS011;34538;48.836;9.174;2023-04-21T00:12:33;30.88;;;16.27;;
48743;SDS011;34538;48.836;9.174;2023-04-21T00:15:00;28.90;;;15.73;;
48743;SDS011;34538;48.836;9.174;2023-04-21T00:17:27;27.58;;;16.30;;
48743;SDS011;34538;48.836;9.174;2023-04-21T00:19:54;26.65;;;15.85;;
48743;SDS011;34538;48.836;9.174;2023-04-21T00:22:21;28.30;;;16.13;;
48743;SDS011;34538;48.836;9.174;2023-04-21T00:24:48;25.65;;;15.55;;
48743;SDS011;34538;48.836;9.174;2023-04-21T00:27:15;28.17;;;15.77;;
48743;SDS011;34538;48.836;9.174;2023-04-21T00:29:43;30.15;;;17.15;;
48743;SDS011;34538;48.836;9.174;2023-04-21T00:32:10;28.40;;;16.25;;
48743;SDS011;34538;48.836;9.174;2023-04-21T00:34:37;29.45;;;16.95;;
48743;SDS011;34538;48.836;9.174;2023-04-21T00:37:04;29.60;;;16.70;;
48743;SDS011;34538;48.836;9.174;2023-04-21T00:39:31;29.55;;;17.52;;
48743;SDS011;34538;48.836;9.174;2023-04-21T00:41:57;31.30;;;17.88;;
48743;SDS011;34538;48.836;9.174;2023-04-21T00:44:26;28.70;;;17.42;;
48743;SDS011;34538;48.836;9.174;2023-04-21T00:46:54;32.00;;;17.15;;
48743;SDS011;34538;48.836;9.174;2023-04-21T00:49:21;26.40;;;16.00;;
48743;SDS011;34538;48.836;9.174;2023-04-21T00:51:49;27.13;;;15.80;;
48743;SDS011;34538;48.836;9.174;2023-04-21T00:54:17;28.83;;;16.73;;
48743;SDS011;34538;48.836;9.174;2023-04-21T00:56:45;26.88;;;15.40;;
48743;SDS011;34538;48.836;9.174;2023-04-21T00:59:12;26.90;;;15.48;;
48743;SDS011;34538;48.836;9.174;2023-04-21T01:01:39;27.08;;;15.65;;
48743;SDS011;34538;48.836;9.174;2023-04-21T01:04:07;27.88;;;16.38;;
48743;SDS011;34538;48.836;9.174;2023-04-21T01:06:35;29.23;;;16.92;;
48743;SDS011;34538;48.836;9.174;2023-04-21T01:09:02;30.02;;;16.63;;
48743;SDS011;34538;48.836;9.174;2023-04-21T01:11:29;31.05;;;16.92;;
48743;SDS011;34538;48.836;9.174;2023-04-21T01:13:56;26.33;;;16.25;;
48743;SDS011;34538;48.836;9.174;2023-04-21T01:16:23;28.15;;;16.48;;
48743;SDS011;34538;48.836;9.174;2023-04-21T01:18:52;25.30;;;14.70;;
48743;SDS011;34538;48.836;9.174;2023-04-21T01:21:20;26.92;;;16.15;;
48743;SDS011;34538;48.836;9.174;2023-04-21T01:23:49;41.20;;;23.70;;
48743;SDS011;34538;48.836;9.174;2023-04-21T01:26:16;38.75;;;22.95;;
48743;SDS011;34538;48.836;9.174;2023-04-21T01:28:43;30.70;;;17.10;;
48743;SDS011;34538;48.836;9.174;2023-04-21T01:31:11;26.60;;;15.50;;
48743;SDS011;34538;48.836;9.174;2023-04-21T01:33:38;26.85;;;15.13;;
48743;SDS011;34538;48.836;9.174;2023-04-21T01:36:06;30.23;;;15.23;;
48743;SDS011;34538;48.836;9.174;2023-04-21T01:38:36;30.23;;;15.48;;
48743;SDS011;34538;48.836;9.174;2023-04-21T01:41:04;24.90;;;14.55;;
48743;SDS011;34538;48.836;9.174;2023-04-21T01:43:31;23.90;;;14.05;;
48743;SDS011;34538;48.836;9.174;2023-04-21T01:45:58;24.85;;;14.30;;
48743;SDS011;34538;48.836;9.174;2023-04-21T01:48:25;28.55;;;16.70;;
48743;SDS011;34538;48.836;9.174;2023-04-21T01:50:52;29.13;;;16.40;;
48743;SDS011;34538;48.836;9.174;2023-04-21T01:53:19;28.85;;;16.85;;
48743;SDS011;34538;48.836;9.174;2023-04-21T01:55:46;27.17;;;15.60;;
48743;SDS011;34538;48.836;9.174;2023-04-21T01:58:14;26.23;;;14.70;;
48743;SDS011;34538;48.836;9.174;2023-04-21T02:00:41;27.60;;;15.80;;
48743;SDS011;34538;48.836;9.174;2023-04-21T02:03:08;24.00;;;13.75;;
48743;SDS011;34538;48.836;9.174;2023-04-21T02:05:36;24.15;;;13.32;;
48743;SDS011;34538;48.836;9.174;2023-04-21T02:08:03;23.92;;;13.65;;
48743;SDS011;34538;48.836;9.174;2023-04-21T02:10:31;22.38;;;13.18;;
48743;SDS011;34538;48.836;9.174;2023-04-21T02:12:58;22.88;;;12.88;;
48743;SDS011;34538;48.836;9.174;2023-04-21T02:15:26;22.25;;;12.75;;
48743;SDS011;34538;48.836;9.174;2023-04-21T02:17:53;24.13;;;13.55;;
48743;SDS011;34538;48.836;9.174;2023-04-21T02:20:23;23.60;;;13.13;;
48743;SDS011;34538;48.836;9.174;2023-04-21T02:22:50;25.38;;;13.82;;
48743;SDS011;34538;48.836;9.174;2023-04-21T02:25:17;26.70;;;14.88;;
48743;SDS011;34538;48.836;9.174;2023-04-21T02:27:44;24.65;;;13.93;;
48743;SDS011;34538;48.836;9.174;2023-04-21T02:30:11;25.55;;;13.93;;
48743;SDS011;34538;48.836;9.174;2023-04-21T02:32:41;24.50;;;13.70;;
48743;SDS011;34538;48.836;9.174;2023-04-21T02:35:09;24.45;;;14.25;;
48743;SDS011;34538;48.836;9.174;2023-04-21T02:37:36;25.38;;;13.70;;
48743;SDS011;34538;48.836;9.174;2023-04-21T02:40:04;22.88;;;12.43;;
48743;SDS011;34538;48.836;9.174;2023-04-21T02:42:32;24.52;;;13.18;;
48743;SDS011;34538;48.836;9.174;2023-04-21T02:44:59;24.40;;;14.18;;
48743;SDS011;34538;48.836;9.174;2023-04-21T02:47:26;25.05;;;13.93;;
48743;SDS011;34538;48.836;9.174;2023-04-21T02:49:54;27.95;;;14.43;;
48743;SDS011;34538;48.836;9.174;2023-04-21T02:52:21;25.20;;;13.15;;
48743;SDS011;34538;48.836;9.174;2023-04-21T02:54:48;23.88;;;13.32;;
48743;SDS011;34538;48.836;9.174;2023-04-21T02:57:15;22.65;;;12.43;;
48743;SDS011;34538;48.836;9.174;2023-04-21T02:59:42;25.67;;;14.07;;
48743;SDS011;34538;48.836;9.174;2023-04-21T03:02:10;26.67;;;14.38;;
48743;SDS011;34538;48.836;9.174;2023-04-21T03:04:37;22.45;;;12.68;;
48743;SDS011;34538;48.836;9.174;2023-04-21T03:07:05;27.30;;;14.20;;
48743;SDS011;34538;48.836;9.174;2023-04-21T03:09:37;24.23;;;13.50;;
48743;SDS011;34538;48.836;9.174;2023-04-21T03:12:04;27.80;;;14.50;;
48743;SDS011;34538;48.836;9.174;2023-04-21T03:14:31;24.65;;;13.80;;
48743;SDS011;34538;48.836;9.174;2023-04-21T03:16:59;24.33;;;13.68;;
48743;SDS011;34538;48.836;9.174;2023-04-21T03:19:26;26.15;;;14.18;;
48743;SDS011;34538;48.836;9.174;2023-04-21T03:21:53;30.42;;;15.07;;
48743;SDS011;34538;48.836;9.174;2023-04-21T03:24:22;30.63;;;15.50;;
48743;SDS011;34538;48.836;9.174;2023-04-21T03:26:49;28.27;;;14.77;;
48743;SDS011;34538;48.836;9.174;2023-04-21T03:29:17;30.25;;;15.68;;
48743;SDS011;34538;48.836;9.174;2023-04-21T03:31:44;29.27;;;14.68;;
48743;SDS011;34538;48.836;9.174;2023-04-21T03:34:10;28.45;;;14.57;;
48743;SDS011;34538;48.836;9.174;2023-04-21T03:36:37;27.60;;;14.95;;
48743;SDS011;34538;48.836;9.174;2023-04-21T03:39:04;27.73;;;14.82;;
48743;SDS011;34538;48.836;9.174;2023-04-21T03:41:33;29.40;;;16.70;;
48743;SDS011;34538;48.836;9.174;2023-04-21T03:44:02;33.43;;;16.87;;
48743;SDS011;34538;48.836;9.174;2023-04-21T03:46:28;32.05;;;16.55;;
48743;SDS011;34538;48.836;9.174;2023-04-21T03:48:55;35.95;;;15.65;;
48743;SDS011;34538;48.836;9.174;2023-04-21T03:51:22;29.63;;;14.65;;
48743;SDS011;34538;48.836;9.174;2023-04-21T03:53:49;29.77;;;16.25;;
48743;SDS011;34538;48.836;9.174;2023-04-21T03:56:16;31.88;;;14.73;;
48743;SDS011;34538;48.836;9.174;2023-04-21T03:58:44;29.42;;;15.70;;
48743;SDS011;34538;48.836;9.174;2023-04-21T04:01:10;35.08;;;16.00;;
48743;SDS011;34538;48.836;9.174;2023-04-21T04:03:37;35.20;;;16.63;;
48743;SDS011;34538;48.836;9.174;2023-04-21T04:06:04;35.03;;;15.70;;
48743;SDS011;34538;48.836;9.174;2023-04-21T04:08:31;28.48;;;14.35;;
48743;SDS011;34538;48.836;9.174;2023-04-21T04:10:58;35.72;;;12.68;;
48743;SDS011;34538;48.836;9.174;2023-04-21T04:13:25;24.15;;;10.98;;
48743;SDS011;34538;48.836;9.174;2023-04-21T04:15:54;23.15;;;10.50;;
48743;SDS011;34538;48.836;9.174;2023-04-21T04:18:22;26.95;;;10.13;;
48743;SDS011;34538;48.836;9.174;2023-04-21T04:20:49;21.42;;;10.20;;
48743;SDS011;34538;48.836;9.174;2023-04-21T04:23:16;20.10;;;9.82;;
48743;SDS011;34538;48.836;9.174;2023-04-21T04:25:43;27.35;;;10.52;;
48743;SDS011;34538;48.836;9.174;2023-04-21T04:28:11;38.08;;;12.48;;
48743;SDS011;34538;48.836;9.174;2023-04-21T04:30:39;38.13;;;12.43;;
48743;SDS011;34538;48.836;9.174;2023-04-21T04:33:08;26.83;;;11.32;;
48743;SDS011;34538;48.836;9.174;2023-04-21T04:35:35;29.13;;;12.77;;
48743;SDS011;34538;48.836;9.174;2023-04-21T04:38:02;32.25;;;12.38;;
48743;SDS011;34538;48.836;9.174;2023-04-21T04:40:31;39.13;;;14.15;;
48743;SDS011;34538;48.836;9.174;2023-04-21T04:42:58;35.53;;;12.25;;
48743;SDS011;34538;48.836;9.174;2023-04-21T04:45:25;25.05;;;10.98;;
48743;SDS011;34538;48.836;9.174;2023-04-21T04:47:52;32.38;;;12.48;;
48743;SDS011;34538;48.836;9.174;2023-04-21T04:50:20;28.42;;;12.57;;
48743;SDS011;34538;48.836;9.174;2023-04-21T04:52:48;48.03;;;15.48;;
48743;SDS011;34538;48.836;9.174;2023-04-21T04:55:15;43.42;;;14.15;;
48743;SDS011;34538;48.836;9.174;2023-04-21T04:57:42;46.67;;;13.25;;
48743;SDS011;34538;48.836;9.174;2023-04-21T05:00:10;37.47;;;12.40;;
48743;SDS011;34538;48.836;9.174;2023-04-21T05:02:38;38.35;;;13.05;;
48743;SDS011;34538;48.836;9.174;2023-04-21T05:05:05;42.13;;;13.73;;
48743;SDS011;34538;48.836;9.174;2023-04-21T05:07:34;29.35;;;12.27;;
48743;SDS011;34538;48.836;9.174;2023-04-21T05:10:01;26.52;;;11.00;;
48743;SDS011;34538;48.836;9.174;2023-04-21T05:12:29;34.33;;;12.20;;
48743;SDS011;34538;48.836;9.174;2023-04-21T05:14:56;40.72;;;14.68;;
48743;SDS011;34538;48.836;9.174;2023-04-21T05:17:23;36.92;;;13.68;;
48743;SDS011;34538;48.836;9.174;2023-04-21T05:19:51;41.15;;;13.40;;
48743;SDS011;34538;48.836;9.174;2023-04-21T05:22:18;31.42;;;12.55;;
48743;SDS011;34538;48.836;9.174;2023-04-21T05:24:46;31.05;;;13.48;;
48743;SDS011;34538;48.836;9.174;2023-04-21T05:27:13;30.92;;;12.65;;
48743;SDS011;34538;48.836;9.174;2023-04-21T05:29:40;32.40;;;12.95;;
48743;SDS011;34538;48.836;9.174;2023-04-21T05:32:06;37.92;;;12.88;;
48743;SDS011;34538;48.836;9.174;2023-04-21T05:34:36;27.23;;;11.45;;
48743;SDS011;34538;48.836;9.174;2023-04-21T05:37:03;24.83;;;12.52;;
48743;SDS011;34538;48.836;9.174;2023-04-21T05:39:30;29.05;;;12.52;;
48743;SDS011;34538;48.836;9.174;2023-04-21T05:41:58;24.45;;;12.57;;
48743;SDS011;34538;48.836;9.174;2023-04-21T05:44:25;30.23;;;15.15;;
48743;SDS011;34538;48.836;9.174;2023-04-21T05:46:52;29.25;;;14.27;;
48743;SDS011;34538;48.836;9.174;2023-04-21T05:49:18;25.73;;;13.10;;
48743;SDS011;34538;48.836;9.174;2023-04-21T05:51:45;24.38;;;12.82;;
48743;SDS011;34538;48.836;9.174;2023-04-21T05:54:12;24.27;;;12.45;;
48743;SDS011;34538;48.836;9.174;2023-04-21T05:56:39;23.13;;;12.73;;
48743;SDS011;34538;48.836;9.174;2023-04-21T05:59:07;22.20;;;12.77;;
48743;SDS011;34538;48.836;9.174;2023-04-21T06:01:34;25.63;;;13.70;;
48743;SDS011;34538;48.836;9.174;2023-04-21T06:04:00;26.88;;;14.50;;
48743;SDS011;34538;48.836;9.174;2023-04-21T06:06:27;28.25;;;14.63;;
48743;SDS011;34538;48.836;9.174;2023-04-21T06:08:54;30.70;;;15.00;;
48743;SDS011;34538;48.836;9.174;2023-04-21T06:11:21;27.50;;;15.52;;
48743;SDS011;34538;48.836;9.174;2023-04-21T06:13:48;31.70;;;16.35;;
48743;SDS011;34538;48.836;9.174;2023-04-21T06:16:18;29.67;;;15.55;;
48743;SDS011;34538;48.836;9.174;2023-04-21T06:18:45;32.35;;;17.40;;
48743;SDS011;34538;48.836;9.174;2023-04-21T06:21:12;34.80;;;15.95;;
48743;SDS011;34538;48.836;9.174;2023-04-21T06:23:39;29.65;;;16.40;;
48743;SDS011;34538;48.836;9.174;2023-04-21T06:26:06;32.30;;;16.83;;
48743;SDS011;34538;48.836;9.174;2023-04-21T06:28:34;32.38;;;16.52;;
48743;SDS011;34538;48.836;9.174;2023-04-21T06:31:03;33.00;;;17.10;;
48743;SDS011;34538;48.836;9.174;2023-04-21T06:33:32;32.88;;;17.23;;
48743;SDS011;34538;48.836;9.174;2023-04-21T06:35:59;32.63;;;16.95;;
48743;SDS011;34538;48.836;9.174;2023-04-21T06:38:25;30.02;;;17.10;;
48743;SDS011;34538;48.836;9.174;2023-04-21T06:40:52;30.65;;;17.02;;
48743;SDS011;34538;48.836;9.174;2023-04-21T06:43:19;30.70;;;17.15;;
48743;SDS011;34538;48.836;9.174;2023-04-21T06:45:46;28.02;;;16.48;;
48743;SDS011;34538;48.836;9.174;2023-04-21T06:48:13;29.02;;;16.38;;
48743;SDS011;34538;48.836;9.174;2023-04-21T06:50:41;27.73;;;15.13;;
48743;SDS011;34538;48.836;9.174;2023-04-21T06:53:10;29.05;;;16.65;;
48743;SDS011;34538;48.836;9.174;2023-04-21T06:55:37;24.27;;;14.38;;
48743;SDS011;34538;48.836;9.174;2023-04-21T06:58:04;26.55;;;15.27;;
48743;SDS011;34538;48.836;9.174;2023-04-21T07:00:34;23.63;;;14.10;;
48743;SDS011;34538;48.836;9.174;2023-04-21T07:03:01;23.83;;;14.50;;
48743;SDS011;34538;48.836;9.174;2023-04-21T07:05:27;26.48;;;15.40;;
48743;SDS011;34538;48.836;9.174;2023-04-21T07:07:56;24.08;;;13.85;;
48743;SDS011;34538;48.836;9.174;2023-04-21T07:10:24;26.67;;;14.75;;
48743;SDS011;34538;48.836;9.174;2023-04-21T07:12:51;25.67;;;15.77;;
48743;SDS011;34538;48.836;9.174;2023-04-21T07:15:18;26.08;;;14.95;;
48743;SDS011;34538;48.836;9.174;2023-04-21T07:17:45;28.50;;;15.07;;
48743;SDS011;34538;48.836;9.174;2023-04-21T07:20:11;23.73;;;14.07;;
48743;SDS011;34538;48.836;9.174;2023-04-21T07:22:38;24.98;;;14.45;;
48743;SDS011;34538;48.836;9.174;2023-04-21T07:25:07;25.90;;;14.23;;
48743;SDS011;34538;48.836;9.174;2023-04-21T07:27:35;23.17;;;14.27;;
48743;SDS011;34538;48.836;9.174;2023-04-21T07:30:02;25.50;;;14.80;;
48743;SDS011;34538;48.836;9.174;2023-04-21T07:32:29;26.27;;;14.25;;
48743;SDS011;34538;48.836;9.174;2023-04-21T07:34:56;24.23;;;13.80;;
48743;SDS011;34538;48.836;9.174;2023-04-21T07:37:23;23.50;;;14.52;;
48743;SDS011;34538;48.836;9.174;2023-04-21T07:39:51;24.52;;;13.68;;
48743;SDS011;34538;48.836;9.174;2023-04-21T07:42:19;23.63;;;13.45;;
48743;SDS011;34538;48.836;9.174;2023-04-21T07:44:46;20.95;;;12.98;;
48743;SDS011;34538;48.836;9.174;2023-04-21T07:47:13;22.60;;;12.88;;
48743;SDS011;34538;48.836;9.174;2023-04-21T07:49:40;23.73;;;14.20;;
48743;SDS011;34538;48.836;9.174;2023-04-21T07:52:07;22.33;;;13.63;;
48743;SDS011;34538;48.836;9.174;2023-04-21T07:54:34;20.88;;;13.20;;
48743;SDS011;34538;48.836;9.174;2023-04-21T07:57:01;20.23;;;12.35;;
48743;SDS011;34538;48.836;9.174;2023-04-21T07:59:29;20.73;;;11.88;;
48743;SDS011;34538;48.836;9.174;2023-04-21T08:01:56;20.60;;;12.13;;
48743;SDS011;34538;48.836;9.174;2023-04-21T08:04:23;20.52;;;12.50;;
48743;SDS011;34538;48.836;9.174;2023-04-21T08:06:50;18.63;;;11.57;;
48743;SDS011;34538;48.836;9.174;2023-04-21T08:09:16;20.00;;;11.13;;
48743;SDS011;34538;48.836;9.174;2023-04-21T08:11:43;18.13;;;11.15;;
48743;SDS011;34538;48.836;9.174;2023-04-21T08:14:11;17.08;;;10.98;;
48743;SDS011;34538;48.836;9.174;2023-04-21T08:16:39;18.20;;;11.13;;
48743;SDS011;34538;48.836;9.174;2023-04-21T08:19:07;18.60;;;11.35;;
48743;SDS011;34538;48.836;9.174;2023-04-21T08:21:34;17.40;;;10.70;;
48743;SDS011;34538;48.836;9.174;2023-04-21T08:24:01;20.27;;;10.05;;
48743;SDS011;34538;48.836;9.174;2023-04-21T08:26:28;15.50;;;10.02;;
48743;SDS011;34538;48.836;9.174;2023-04-21T08:28:57;13.82;;;9.48;;
48743;SDS011;34538;48.836;9.174;2023-04-21T08:31:25;14.45;;;9.40;;
48743;SDS011;34538;48.836;9.174;2023-04-21T08:33:53;13.60;;;8.93;;
48743;SDS011;34538;48.836;9.174;2023-04-21T08:36:20;17.23;;;9.80;;
48743;SDS011;34538;48.836;9.174;2023-04-21T08:38:47;15.07;;;9.25;;
48743;SDS011;34538;48.836;9.174;2023-04-21T08:41:14;13.15;;;8.13;;
48743;SDS011;34538;48.836;9.174;2023-04-21T08:43:40;14.43;;;8.73;;
48743;SDS011;34538;48.836;9.174;2023-04-21T08:46:07;12.13;;;8.07;;
48743;SDS011;34538;48.836;9.174;2023-04-21T08:48:35;10.43;;;7.03;;
48743;SDS011;34538;48.836;9.174;2023-04-21T08:51:04;11.13;;;6.70;;
48743;SDS011;34538;48.836;9.174;2023-04-21T08:53:34;11.93;;;7.00;;
48743;SDS011;34538;48.836;9.174;2023-04-21T08:56:01;11.40;;;6.88;;
48743;SDS011;34538;48.836;9.174;2023-04-21T08:58:29;11.45;;;6.75;;
48743;SDS011;34538;48.836;9.174;2023-04-21T09:00:56;13.27;;;7.38;;
48743;SDS011;34538;48.836;9.174;2023-04-21T09:03:23;11.82;;;7.82;;
48743;SDS011;34538;48.836;9.174;2023-04-21T09:05:56;12.07;;;7.65;;
48743;SDS011;34538;48.836;9.174;2023-04-21T09:08:26;12.63;;;8.10;;
48743;SDS011;34538;48.836;9.174;2023-04-21T09:10:54;11.88;;;8.52;;
48743;SDS011;34538;48.836;9.174;2023-04-21T09:13:28;13.90;;;8.57;;
48743;SDS011;34538;48.836;9.174;2023-04-21T09:15:56;12.77;;;7.47;;
48743;SDS011;34538;48.836;9.174;2023-04-21T09:18:24;12.50;;;6.70;;
48743;SDS011;34538;48.836;9.174;2023-04-21T09:21:03;12.07;;;7.85;;
48743;SDS011;34538;48.836;9.174;2023-04-21T09:23:36;13.07;;;8.38;;
48743;SDS011;34538;48.836;9.174;2023-04-21T09:26:05;10.88;;;7.22;;
48743;SDS011;34538;48.836;9.174;2023-04-21T09:28:32;12.05;;;7.80;;
48743;SDS011;34538;48.836;9.174;2023-04-21T09:30:59;12.40;;;8.18;;
48743;SDS011;34538;48.836;9.174;2023-04-21T09:33:26;12.05;;;8.07;;
48743;SDS011;34538;48.836;9.174;2023-04-21T09:35:53;11.38;;;7.53;;
48743;SDS011;34538;48.836;9.174;2023-04-21T09:38:20;11.60;;;7.78;;
48743;SDS011;34538;48.836;9.174;2023-04-21T09:40:56;10.40;;;7.05;;
48743;SDS011;34538;48.836;9.174;2023-04-21T09:43:23;11.57;;;7.43;;
48743;SDS011;34538;48.836;9.174;2023-04-21T09:45:50;11.38;;;7.22;;
48743;SDS011;34538;48.836;9.174;2023-04-21T09:48:18;11.85;;;8.13;;
48743;SDS011;34538;48.836;9.174;2023-04-21T09:50:47;13.45;;;7.97;;
48743;SDS011;34538;48.836;9.174;2023-04-21T09:53:15;11.80;;;7.60;;
48743;SDS011;34538;48.836;9.174;2023-04-21T09:55:43;11.35;;;7.28;;
48743;SDS011;34538;48.836;9.174;2023-04-21T09:58:15;12.00;;;7.60;;
48743;SDS011;34538;48.836;9.174;2023-04-21T10:00:48;11.18;;;6.90;;
48743;SDS011;34538;48.836;9.174;2023-04-21T10:03:16;10.90;;;6.78;;
48743;SDS011;34538;48.836;9.174;2023-04-21T10:05:46;11.95;;;7.22;;
48743;SDS011;34538;48.836;9.174;2023-04-21T10:08:12;11.45;;;7.20;;
48743;SDS011;34538;48.836;9.174;2023-04-21T10:10:41;10.68;;;6.57;;
48743;SDS011;34538;48.836;9.174;2023-04-21T10:13:11;9.45;;;6.80;;
48743;SDS011;34538;48.836;9.174;2023-04-21T10:15:42;11.15;;;7.03;;
48743;SDS011;34538;48.836;9.174;2023-04-21T10:18:12;11.25;;;6.90;;
48743;SDS011;34538;48.836;9.174;2023-04-21T10:20:50;10.93;;;6.03;;
48743;SDS011;34538;48.836;9.174;2023-04-21T10:23:31;11.38;;;6.38;;
48743;SDS011;34538;48.836;9.174;2023-04-21T10:26:05;10.32;;;6.97;;
48743;SDS011;34538;48.836;9.174;2023-04-21T10:28:45;12.45;;;7.20;;
48743;SDS011;34538;48.836;9.174;2023-04-21T10:31:18;11.95;;;7.40;;
48743;SDS011;34538;48.836;9.174;2023-04-21T10:37:06;10.85;;;6.55;;
48743;SDS011;34538;48.836;9.174;2023-04-21T10:39:43;12.43;;;6.28;;
48743;SDS011;34538;48.836;9.174;2023-04-21T10:42:19;10.55;;;7.18;;
48743;SDS011;34538;48.836;9.174;2023-04-21T10:47:47;10.25;;;6.15;;
48743;SDS011;34538;48.836;9.174;2023-04-21T10:50:19;9.55;;;6.20;;
48743;SDS011;34538;48.836;9.174;2023-04-21T10:52:51;9.75;;;5.75;;
48743;SDS011;34538;48.836;9.174;2023-04-21T10:55:27;10.38;;;5.80;;
48743;SDS011;34538;48.836;9.174;2023-04-21T10:57:55;8.90;;;5.40;;
48743;SDS011;34538;48.836;9.174;2023-04-21T11:00:23;9.50;;;5.85;;
48743;SDS011;34538;48.836;9.174;2023-04-21T11:02:56;9.75;;;5.63;;
48743;SDS011;34538;48.836;9.174;2023-04-21T11:05:28;8.95;;;5.90;;
48743;SDS011;34538;48.836;9.174;2023-04-21T11:08:02;9.30;;;5.80;;
48743;SDS011;34538;48.836;9.174;2023-04-21T11:10:40;9.48;;;5.95;;
48743;SDS011;34538;48.836;9.174;2023-04-21T11:13:08;10.38;;;6.32;;
48743;SDS011;34538;48.836;9.174;2023-04-21T11:15:35;9.18;;;5.80;;
48743;SDS011;34538;48.836;9.174;2023-04-21T11:18:04;9.25;;;5.47;;
48743;SDS011;34538;48.836;9.174;2023-04-21T11:20:31;8.35;;;5.63;;
48743;SDS011;34538;48.836;9.174;2023-04-21T11:22:58;7.30;;;4.75;;
48743;SDS011;34538;48.836;9.174;2023-04-21T11:25:25;8.20;;;5.07;;
48743;SDS011;34538;48.836;9.174;2023-04-21T11:27:52;8.15;;;5.32;;
48743;SDS011;34538;48.836;9.174;2023-04-21T11:30:20;9.52;;;6.10;;
48743;SDS011;34538;48.836;9.174;2023-04-21T11:32:52;8.95;;;5.65;;
48743;SDS011;34538;48.836;9.174;2023-04-21T11:35:21;7.47;;;4.90;;
48743;SDS011;34538;48.836;9.174;2023-04-21T11:37:48;7.03;;;5.03;;
48743;SDS011;34538;48.836;9.174;2023-04-21T11:40:16;8.10;;;4.80;;
48743;SDS011;34538;48.836;9.174;2023-04-21T11:42:43;6.40;;;4.35;;
48743;SDS011;34538;48.836;9.174;2023-04-21T11:45:15;8.68;;;5.30;;
48743;SDS011;34538;48.836;9.174;2023-04-21T11:47:43;7.57;;;4.93;;
48743;SDS011;34538;48.836;9.174;2023-04-21T11:50:10;8.25;;;5.03;;
48743;SDS011;34538;48.836;9.174;2023-04-21T11:52:38;7.22;;;4.75;;
48743;SDS011;34538;48.836;9.174;2023-04-21T11:55:10;8.52;;;5.35;;
48743;SDS011;34538;48.836;9.174;2023-04-21T11:57:39;6.90;;;4.53;;
48743;SDS011;34538;48.836;9.174;2023-04-21T12:00:07;7.57;;;5.07;;
48743;SDS011;34538;48.836;9.174;2023-04-21T12:02:37;8.40;;;5.05;;
48743;SDS011;34538;48.836;9.174;2023-04-21T12:05:04;6.65;;;3.97;;
48743;SDS011;34538;48.836;9.174;2023-04-21T12:07:32;7.22;;;4.70;;
48743;SDS011;34538;48.836;9.174;2023-04-21T12:10:07;6.95;;;4.70;;
48743;SDS011;34538;48.836;9.174;2023-04-21T12:12:36;8.13;;;4.80;;
48743;SDS011;34538;48.836;9.174;2023-04-21T12:15:03;7.63;;;4.45;;
48743;SDS011;34538;48.836;9.174;2023-04-21T12:17:34;7.03;;;4.00;;
48743;SDS011;34538;48.836;9.174;2023-04-21T12:20:04;7.60;;;4.25;;
48743;SDS011;34538;48.836;9.174;2023-04-21T12:22:32;7.85;;;4.25;;
48743;SDS011;34538;48.836;9.174;2023-04-21T12:24:58;5.40;;;3.70;;
48743;SDS011;34538;48.836;9.174;2023-04-21T12:27:27;8.77;;;4.05;;
48743;SDS011;34538;48.836;9.174;2023-04-21T12:29:54;6.18;;;3.83;;
48743;SDS011;34538;48.836;9.174;2023-04-21T12:32:20;6.05;;;3.95;;
48743;SDS011;34538;48.836;9.174;2023-04-21T12:34:49;5.03;;;3.40;;
48743;SDS011;34538;48.836;9.174;2023-04-21T12:37:16;6.50;;;3.90;;
48743;SDS011;34538;48.836;9.174;2023-04-21T12:39:43;7.05;;;4.13;;
48743;SDS011;34538;48.836;9.174;2023-04-21T12:42:10;5.10;;;3.55;;
48743;SDS011;34538;48.836;9.174;2023-04-21T12:44:38;5.78;;;2.90;;
48743;SDS011;34538;48.836;9.174;2023-04-21T12:47:05;6.05;;;3.25;;
48743;SDS011;34538;48.836;9.174;2023-04-21T12:49:32;4.82;;;3.05;;
48743;SDS011;34538;48.836;9.174;2023-04-21T12:51:59;4.70;;;3.17;;
48743;SDS011;34538;48.836;9.174;2023-04-21T12:54:26;4.78;;;2.90;;
48743;SDS011;34538;48.836;9.174;2023-04-21T12:56:53;5.63;;;2.78;;
48743;SDS011;34538;48.836;9.174;2023-04-21T12:59:20;3.95;;;2.60;;
48743;SDS011;34538;48.836;9.174;2023-04-21T13:01:48;4.18;;;2.70;;
48743;SDS011;34538;48.836;9.174;2023-04-21T13:04:15;5.03;;;3.20;;
48743;SDS011;34538;48.836;9.174;2023-04-21T13:06:42;3.72;;;2.70;;
48743;SDS011;34538;48.836;9.174;2023-04-21T13:09:09;6.18;;;3.63;;
48743;SDS011;34538;48.836;9.174;2023-04-21T13:11:36;5.15;;;3.45;;
48743;SDS011;34538;48.836;9.174;2023-04-21T13:14:03;5.38;;;2.97;;
48743;SDS011;34538;48.836;9.174;2023-04-21T13:16:30;4.18;;;2.70;;
48743;SDS011;34538;48.836;9.174;2023-04-21T13:18:59;3.63;;;2.72;;
48743;SDS011;34538;48.836;9.174;2023-04-21T13:21:25;6.25;;;3.80;;
48743;SDS011;34538;48.836;9.174;2023-04-21T13:23:52;4.57;;;2.63;;
48743;SDS011;34538;48.836;9.174;2023-04-21T13:26:20;4.85;;;3.47;;
48743;SDS011;34538;48.836;9.174;2023-04-21T13:28:47;6.72;;;3.63;;
48743;SDS011;34538;48.836;9.174;2023-04-21T13:31:14;7.63;;;3.42;;
48743;SDS011;34538;48.836;9.174;2023-04-21T13:33:41;3.60;;;2.60;;
48743;SDS011;34538;48.836;9.174;2023-04-21T13:36:09;7.00;;;2.90;;
48743;SDS011;34538;48.836;9.174;2023-04-21T13:38:36;3.75;;;2.60;;
48743;SDS011;34538;48.836;9.174;2023-04-21T13:41:04;7.00;;;2.70;;
48743;SDS011;34538;48.836;9.174;2023-04-21T13:43:31;3.55;;;2.30;;
48743;SDS011;34538;48.836;9.174;2023-04-21T13:45:58;5.03;;;2.67;;
48743;SDS011;34538;48.836;9.174;2023-04-21T13:48:25;6.68;;;2.70;;
48743;SDS011;34538;48.836;9.174;2023-04-21T13:50:53;6.00;;;3.55;;
48743;SDS011;34538;48.836;9.174;2023-04-21T13:53:22;4.35;;;3.00;;
48743;SDS011;34538;48.836;9.174;2023-04-21T13:55:48;7.65;;;4.30;;
48743;SDS011;34538;48.836;9.174;2023-04-21T13:58:16;5.43;;;3.53;;
48743;SDS011;34538;48.836;9.174;2023-04-21T14:00:43;5.22;;;3.30;;
48743;SDS011;34538;48.836;9.174;2023-04-21T14:03:10;10.52;;;7.35;;
48743;SDS011;34538;48.836;9.174;2023-04-21T14:05:38;5.80;;;3.85;;
48743;SDS011;34538;48.836;9.174;2023-04-21T14:08:05;6.88;;;4.68;;
48743;SDS011;34538;48.836;9.174;2023-04-21T14:10:33;7.18;;;3.78;;
48743;SDS011;34538;48.836;9.174;2023-04-21T14:13:01;7.07;;;3.92;;
48743;SDS011;34538;48.836;9.174;2023-04-21T14:15:29;5.40;;;3.30;;
48743;SDS011;34538;48.836;9.174;2023-04-21T14:17:55;4.78;;;3.30;;
48743;SDS011;34538;48.836;9.174;2023-04-21T14:20:22;5.40;;;3.67;;
48743;SDS011;34538;48.836;9.174;2023-04-21T14:22:49;7.45;;;4.07;;
48743;SDS011;34538;48.836;9.174;2023-04-21T14:25:16;5.65;;;4.03;;
48743;SDS011;34538;48.836;9.174;2023-04-21T14:27:44;7.05;;;4.05;;
48743;SDS011;34538;48.836;9.174;2023-04-21T14:30:11;6.65;;;3.90;;
48743;SDS011;34538;48.836;9.174;2023-04-21T14:32:39;8.05;;;4.13;;
48743;SDS011;34538;48.836;9.174;2023-04-21T14:35:09;7.75;;;3.83;;
48743;SDS011;34538;48.836;9.174;2023-04-21T14:37:36;5.80;;;3.70;;
48743;SDS011;34538;48.836;9.174;2023-04-21T14:40:03;5.88;;;3.30;;